sensor_id;sensor_type;location;lat;lon;timestamp;temperature;humidity
44111;DHT22;29774;52.664;5.074;2024-02-21T00:01:23;11.50;81.20
44111;DHT22;29774;52.664;5.074;2024-02-21T00:03:49;11.50;80.90
44111;DHT22;29774;52.664;5.074;2024-02-21T00:06:14;11.50;80.80
44111;DHT22;29774;52.664;5.074;2024-02-21T00:08:40;11.40;80.80
44111;DHT22;29774;52.664;5.074;2024-02-21T00:11:06;11.40;80.90
44111;DHT22;29774;52.664;5.074;2024-02-21T00:13:32;11.60;81.10
44111;DHT22;29774;52.664;5.074;2024-02-21T00:15:57;11.50;80.50
44111;DHT22;29774;52.664;5.074;2024-02-21T00:18:23;11.40;80.40
44111;DHT22;29774;52.664;5.074;2024-02-21T00:20:49;11.40;80.70
44111;DHT22;29774;52.664;5.074;2024-02-21T00:23:14;11.30;80.70
44111;DHT22;29774;52.664;5.074;2024-02-21T00:25:40;11.30;80.90
44111;DHT22;29774;52.664;5.074;2024-02-21T00:28:05;11.40;80.90
44111;DHT22;29774;52.664;5.074;2024-02-21T00:30:31;11.30;80.90
44111;DHT22;29774;52.664;5.074;2024-02-21T00:32:57;11.30;81.10
44111;DHT22;29774;52.664;5.074;2024-02-21T00:35:24;11.40;81.20
44111;DHT22;29774;52.664;5.074;2024-02-21T00:37:51;11.30;80.90
44111;DHT22;29774;52.664;5.074;2024-02-21T00:40:17;11.20;81.10
44111;DHT22;29774;52.664;5.074;2024-02-21T00:42:46;11.30;81.40
44111;DHT22;29774;52.664;5.074;2024-02-21T00:45:12;11.50;81.30
44111;DHT22;29774;52.664;5.074;2024-02-21T00:47:37;11.50;80.90
44111;DHT22;29774;52.664;5.074;2024-02-21T00:50:03;11.60;81.00
44111;DHT22;29774;52.664;5.074;2024-02-21T00:52:29;11.70;80.90
44111;DHT22;29774;52.664;5.074;2024-02-21T00:54:54;11.70;80.40
44111;DHT22;29774;52.664;5.074;2024-02-21T00:57:20;11.70;80.30
44111;DHT22;29774;52.664;5.074;2024-02-21T00:59:46;11.60;80.40
44111;DHT22;29774;52.664;5.074;2024-02-21T01:02:11;11.60;80.20
44111;DHT22;29774;52.664;5.074;2024-02-21T01:04:37;11.60;80.50
44111;DHT22;29774;52.664;5.074;2024-02-21T01:07:02;11.50;80.60
44111;DHT22;29774;52.664;5.074;2024-02-21T01:09:28;11.50;80.40
44111;DHT22;29774;52.664;5.074;2024-02-21T01:11:54;11.60;80.60
44111;DHT22;29774;52.664;5.074;2024-02-21T01:14:19;11.60;80.40
44111;DHT22;29774;52.664;5.074;2024-02-21T01:16:45;11.50;80.10
44111;DHT22;29774;52.664;5.074;2024-02-21T01:19:10;11.60;80.40
44111;DHT22;29774;52.664;5.074;2024-02-21T01:21:36;11.60;80.40
44111;DHT22;29774;52.664;5.074;2024-02-21T01:24:02;11.60;80.30
44111;DHT22;29774;52.664;5.074;2024-02-21T01:26:27;11.50;80.20
44111;DHT22;29774;52.664;5.074;2024-02-21T01:28:53;11.40;80.40
44111;DHT22;29774;52.664;5.074;2024-02-21T01:31:18;11.30;80.40
44111;DHT22;29774;52.664;5.074;2024-02-21T01:33:44;11.40;80.70
44111;DHT22;29774;52.664;5.074;2024-02-21T01:36:10;11.30;80.60
44111;DHT22;29774;52.664;5.074;2024-02-21T01:38:35;11.30;80.80
44111;DHT22;29774;52.664;5.074;2024-02-21T01:41:01;11.30;80.80
44111;DHT22;29774;52.664;5.074;2024-02-21T01:43:27;11.40;81.10
44111;DHT22;29774;52.664;5.074;2024-02-21T01:45:54;11.30;80.70
44111;DHT22;29774;52.664;5.074;2024-02-21T01:48:22;11.30;80.80
44111;DHT22;29774;52.664;5.074;2024-02-21T01:50:49;11.50;81.20
44111;DHT22;29774;52.664;5.074;2024-02-21T01:53:18;11.50;80.70
44111;DHT22;29774;52.664;5.074;2024-02-21T01:55:48;11.50;80.40
44111;DHT22;29774;52.664;5.074;2024-02-21T01:58:14;11.50;80.40
44111;DHT22;29774;52.664;5.074;2024-02-21T02:00:44;11.40;80.30
44111;DHT22;29774;52.664;5.074;2024-02-21T02:03:10;11.40;80.50
44111;DHT22;29774;52.664;5.074;2024-02-21T02:05:49;11.40;80.50
44111;DHT22;29774;52.664;5.074;2024-02-21T02:08:24;11.40;80.60
44111;DHT22;29774;52.664;5.074;2024-02-21T02:10:50;11.40;80.90
44111;DHT22;29774;52.664;5.074;2024-02-21T02:13:16;11.40;80.90
44111;DHT22;29774;52.664;5.074;2024-02-21T02:15:45;11.30;80.80
44111;DHT22;29774;52.664;5.074;2024-02-21T02:18:12;11.20;81.00
44111;DHT22;29774;52.664;5.074;2024-02-21T02:20:38;11.40;81.50
44111;DHT22;29774;52.664;5.074;2024-02-21T02:23:10;11.40;81.20
44111;DHT22;29774;52.664;5.074;2024-02-21T02:25:39;11.40;81.00
44111;DHT22;29774;52.664;5.074;2024-02-21T02:28:08;11.20;81.10
44111;DHT22;29774;52.664;5.074;2024-02-21T02:30:37;11.20;81.40
44111;DHT22;29774;52.664;5.074;2024-02-21T02:33:03;11.20;81.50
44111;DHT22;29774;52.664;5.074;2024-02-21T02:35:29;11.20;81.70
44111;DHT22;29774;52.664;5.074;2024-02-21T02:37:55;11.10;81.80
44111;DHT22;29774;52.664;5.074;2024-02-21T02:40:21;11.20;82.10
44111;DHT22;29774;52.664;5.074;2024-02-21T02:42:46;11.30;81.80
44111;DHT22;29774;52.664;5.074;2024-02-21T02:45:17;11.10;81.70
44111;DHT22;29774;52.664;5.074;2024-02-21T02:47:44;11.10;81.80
44111;DHT22;29774;52.664;5.074;2024-02-21T02:50:11;11.10;82.10
44111;DHT22;29774;52.664;5.074;2024-02-21T02:52:37;11.20;82.00
44111;DHT22;29774;52.664;5.074;2024-02-21T02:55:03;11.20;82.00
44111;DHT22;29774;52.664;5.074;2024-02-21T02:57:29;11.30;81.90
44111;DHT22;29774;52.664;5.074;2024-02-21T02:59:55;11.40;81.70
44111;DHT22;29774;52.664;5.074;2024-02-21T03:02:20;11.20;81.60
44111;DHT22;29774;52.664;5.074;2024-02-21T03:04:46;11.20;81.80
44111;DHT22;29774;52.664;5.074;2024-02-21T03:07:12;11.20;81.90
44111;DHT22;29774;52.664;5.074;2024-02-21T03:09:38;11.10;81.90
44111;DHT22;29774;52.664;5.074;2024-02-21T03:12:05;11.00;82.10
44111;DHT22;29774;52.664;5.074;2024-02-21T03:14:31;11.00;82.20
44111;DHT22;29774;52.664;5.074;2024-02-21T03:17:01;11.10;82.20
44111;DHT22;29774;52.664;5.074;2024-02-21T03:19:26;11.10;82.10
44111;DHT22;29774;52.664;5.074;2024-02-21T03:21:52;11.10;82.10
44111;DHT22;29774;52.664;5.074;2024-02-21T03:24:21;11.00;82.20
44111;DHT22;29774;52.664;5.074;2024-02-21T03:26:47;11.00;82.30
44111;DHT22;29774;52.664;5.074;2024-02-21T03:29:14;11.00;82.40
44111;DHT22;29774;52.664;5.074;2024-02-21T03:31:40;11.00;82.40
44111;DHT22;29774;52.664;5.074;2024-02-21T03:34:06;10.80;82.50
44111;DHT22;29774;52.664;5.074;2024-02-21T03:36:31;10.70;82.80
44111;DHT22;29774;52.664;5.074;2024-02-21T03:38:57;10.60;83.00
44111;DHT22;29774;52.664;5.074;2024-02-21T03:41:23;10.50;83.10
44111;DHT22;29774;52.664;5.074;2024-02-21T03:43:48;10.50;83.30
44111;DHT22;29774;52.664;5.074;2024-02-21T03:46:14;10.50;83.40
44111;DHT22;29774;52.664;5.074;2024-02-21T03:48:40;10.50;83.50
44111;DHT22;29774;52.664;5.074;2024-02-21T03:51:06;10.50;83.50
44111;DHT22;29774;52.664;5.074;2024-02-21T03:53:31;10.50;83.60
44111;DHT22;29774;52.664;5.074;2024-02-21T03:55:57;10.60;83.70
44111;DHT22;29774;52.664;5.074;2024-02-21T03:58:28;10.50;83.70
44111;DHT22;29774;52.664;5.074;2024-02-21T04:00:54;10.50;83.80
44111;DHT22;29774;52.664;5.074;2024-02-21T04:03:19;10.40;83.80
44111;DHT22;29774;52.664;5.074;2024-02-21T04:05:45;10.30;84.00
44111;DHT22;29774;52.664;5.074;2024-02-21T04:08:11;10.20;84.20
44111;DHT22;29774;52.664;5.074;2024-02-21T04:10:37;10.30;84.40
44111;DHT22;29774;52.664;5.074;2024-02-21T04:13:03;10.40;84.50
44111;DHT22;29774;52.664;5.074;2024-02-21T04:15:29;10.30;84.50
44111;DHT22;29774;52.664;5.074;2024-02-21T04:17:54;10.20;84.60
44111;DHT22;29774;52.664;5.074;2024-02-21T04:20:20;10.20;84.80
44111;DHT22;29774;52.664;5.074;2024-02-21T04:22:46;10.20;84.90
44111;DHT22;29774;52.664;5.074;2024-02-21T04:25:12;10.30;84.90
44111;DHT22;29774;52.664;5.074;2024-02-21T04:27:41;10.30;84.90
44111;DHT22;29774;52.664;5.074;2024-02-21T04:30:07;10.40;84.90
44111;DHT22;29774;52.664;5.074;2024-02-21T04:32:35;10.40;84.90
44111;DHT22;29774;52.664;5.074;2024-02-21T04:35:00;10.40;84.90
44111;DHT22;29774;52.664;5.074;2024-02-21T04:37:26;10.30;85.00
44111;DHT22;29774;52.664;5.074;2024-02-21T04:39:51;10.30;85.00
44111;DHT22;29774;52.664;5.074;2024-02-21T04:42:17;10.30;85.10
44111;DHT22;29774;52.664;5.074;2024-02-21T04:44:43;10.30;85.10
44111;DHT22;29774;52.664;5.074;2024-02-21T04:47:08;10.30;85.20
44111;DHT22;29774;52.664;5.074;2024-02-21T04:49:34;10.20;85.20
44111;DHT22;29774;52.664;5.074;2024-02-21T04:52:00;10.40;85.30
44111;DHT22;29774;52.664;5.074;2024-02-21T04:54:26;10.60;85.30
44111;DHT22;29774;52.664;5.074;2024-02-21T04:56:52;10.70;85.00
44111;DHT22;29774;52.664;5.074;2024-02-21T04:59:18;10.70;84.50
44111;DHT22;29774;52.664;5.074;2024-02-21T05:01:44;10.70;84.40
44111;DHT22;29774;52.664;5.074;2024-02-21T05:04:09;10.70;84.30
44111;DHT22;29774;52.664;5.074;2024-02-21T05:06:41;10.70;84.20
44111;DHT22;29774;52.664;5.074;2024-02-21T05:09:08;10.70;84.20
44111;DHT22;29774;52.664;5.074;2024-02-21T05:11:35;10.70;84.20
44111;DHT22;29774;52.664;5.074;2024-02-21T05:14:01;10.70;84.20
44111;DHT22;29774;52.664;5.074;2024-02-21T05:16:26;10.70;84.20
44111;DHT22;29774;52.664;5.074;2024-02-21T05:18:52;10.70;84.20
44111;DHT22;29774;52.664;5.074;2024-02-21T05:21:17;10.70;84.10
44111;DHT22;29774;52.664;5.074;2024-02-21T05:23:43;10.80;83.90
44111;DHT22;29774;52.664;5.074;2024-02-21T05:26:09;10.80;83.90
44111;DHT22;29774;52.664;5.074;2024-02-21T05:28:34;10.80;83.70
44111;DHT22;29774;52.664;5.074;2024-02-21T05:31:00;10.70;83.80
44111;DHT22;29774;52.664;5.074;2024-02-21T05:33:26;10.80;83.80
44111;DHT22;29774;52.664;5.074;2024-02-21T05:35:52;10.80;83.80
44111;DHT22;29774;52.664;5.074;2024-02-21T05:38:18;10.80;83.70
44111;DHT22;29774;52.664;5.074;2024-02-21T05:40:46;10.80;83.70
44111;DHT22;29774;52.664;5.074;2024-02-21T05:43:12;10.70;83.80
44111;DHT22;29774;52.664;5.074;2024-02-21T05:45:37;10.70;83.80
44111;DHT22;29774;52.664;5.074;2024-02-21T05:48:04;10.70;83.90
44111;DHT22;29774;52.664;5.074;2024-02-21T05:50:29;10.70;84.00
44111;DHT22;29774;52.664;5.074;2024-02-21T05:52:55;10.80;84.00
44111;DHT22;29774;52.664;5.074;2024-02-21T05:55:21;10.80;83.90
44111;DHT22;29774;52.664;5.074;2024-02-21T05:57:47;10.70;83.80
44111;DHT22;29774;52.664;5.074;2024-02-21T06:00:13;10.70;83.80
44111;DHT22;29774;52.664;5.074;2024-02-21T06:02:39;10.70;83.80
44111;DHT22;29774;52.664;5.074;2024-02-21T06:05:06;10.70;83.80
44111;DHT22;29774;52.664;5.074;2024-02-21T06:07:33;10.70;83.90
44111;DHT22;29774;52.664;5.074;2024-02-21T06:09:59;10.80;83.90
44111;DHT22;29774;52.664;5.074;2024-02-21T06:12:25;10.90;83.80
44111;DHT22;29774;52.664;5.074;2024-02-21T06:14:50;11.00;83.60
44111;DHT22;29774;52.664;5.074;2024-02-21T06:17:16;10.80;83.30
44111;DHT22;29774;52.664;5.074;2024-02-21T06:19:43;10.90;83.50
44111;DHT22;29774;52.664;5.074;2024-02-21T06:22:09;10.80;83.40
44111;DHT22;29774;52.664;5.074;2024-02-21T06:24:35;10.70;83.40
44111;DHT22;29774;52.664;5.074;2024-02-21T06:27:03;10.70;83.50
44111;DHT22;29774;52.664;5.074;2024-02-21T06:29:28;10.70;83.60
44111;DHT22;29774;52.664;5.074;2024-02-21T06:31:54;10.80;83.70
44111;DHT22;29774;52.664;5.074;2024-02-21T06:34:20;10.70;83.60
44111;DHT22;29774;52.664;5.074;2024-02-21T06:36:45;10.80;83.60
44111;DHT22;29774;52.664;5.074;2024-02-21T06:39:11;10.80;83.50
44111;DHT22;29774;52.664;5.074;2024-02-21T06:41:37;10.70;83.50
44111;DHT22;29774;52.664;5.074;2024-02-21T06:44:03;10.70;83.50
44111;DHT22;29774;52.664;5.074;2024-02-21T06:46:29;10.70;83.60
44111;DHT22;29774;52.664;5.074;2024-02-21T06:48:56;10.60;83.70
44111;DHT22;29774;52.664;5.074;2024-02-21T06:51:22;10.60;83.80
44111;DHT22;29774;52.664;5.074;2024-02-21T06:53:48;10.70;83.80
44111;DHT22;29774;52.664;5.074;2024-02-21T06:56:13;10.70;83.60
44111;DHT22;29774;52.664;5.074;2024-02-21T06:58:39;10.80;83.80
44111;DHT22;29774;52.664;5.074;2024-02-21T07:01:05;10.80;83.60
44111;DHT22;29774;52.664;5.074;2024-02-21T07:03:30;10.90;83.50
44111;DHT22;29774;52.664;5.074;2024-02-21T07:05:56;10.80;83.40
44111;DHT22;29774;52.664;5.074;2024-02-21T07:08:21;10.90;83.40
44111;DHT22;29774;52.664;5.074;2024-02-21T07:10:47;11.00;83.30
44111;DHT22;29774;52.664;5.074;2024-02-21T07:13:13;10.90;83.10
44111;DHT22;29774;52.664;5.074;2024-02-21T07:15:41;11.00;83.20
44111;DHT22;29774;52.664;5.074;2024-02-21T07:18:06;10.90;82.90
44111;DHT22;29774;52.664;5.074;2024-02-21T07:20:32;11.10;83.00
44111;DHT22;29774;52.664;5.074;2024-02-21T07:22:59;11.20;82.80
44111;DHT22;29774;52.664;5.074;2024-02-21T07:25:25;11.20;82.70
44111;DHT22;29774;52.664;5.074;2024-02-21T07:27:50;11.20;82.60
44111;DHT22;29774;52.664;5.074;2024-02-21T07:30:16;11.30;82.50
44111;DHT22;29774;52.664;5.074;2024-02-21T07:32:42;11.30;82.20
44111;DHT22;29774;52.664;5.074;2024-02-21T07:35:08;11.50;82.20
44111;DHT22;29774;52.664;5.074;2024-02-21T07:37:37;11.50;81.90
44111;DHT22;29774;52.664;5.074;2024-02-21T07:40:11;11.70;81.50
44111;DHT22;29774;52.664;5.074;2024-02-21T07:42:37;11.80;81.10
44111;DHT22;29774;52.664;5.074;2024-02-21T07:45:03;11.60;80.60
44111;DHT22;29774;52.664;5.074;2024-02-21T07:47:29;11.60;80.80
44111;DHT22;29774;52.664;5.074;2024-02-21T07:49:54;11.60;80.70
44111;DHT22;29774;52.664;5.074;2024-02-21T07:52:20;11.60;80.70
44111;DHT22;29774;52.664;5.074;2024-02-21T07:54:45;11.70;80.60
44111;DHT22;29774;52.664;5.074;2024-02-21T07:57:11;11.70;80.50
44111;DHT22;29774;52.664;5.074;2024-02-21T07:59:37;11.80;80.40
44111;DHT22;29774;52.664;5.074;2024-02-21T08:02:02;11.70;80.30
44111;DHT22;29774;52.664;5.074;2024-02-21T08:04:32;11.70;79.90
44111;DHT22;29774;52.664;5.074;2024-02-21T08:06:57;11.80;80.00
44111;DHT22;29774;52.664;5.074;2024-02-21T08:09:26;11.80;80.00
44111;DHT22;29774;52.664;5.074;2024-02-21T08:11:53;11.70;80.00
44111;DHT22;29774;52.664;5.074;2024-02-21T08:14:19;11.70;79.90
44111;DHT22;29774;52.664;5.074;2024-02-21T08:16:45;11.70;80.00
44111;DHT22;29774;52.664;5.074;2024-02-21T08:19:11;11.70;80.10
44111;DHT22;29774;52.664;5.074;2024-02-21T08:21:36;11.70;80.00
44111;DHT22;29774;52.664;5.074;2024-02-21T08:24:02;11.70;80.10
44111;DHT22;29774;52.664;5.074;2024-02-21T08:26:28;11.80;79.80
44111;DHT22;29774;52.664;5.074;2024-02-21T08:28:58;11.70;79.80
44111;DHT22;29774;52.664;5.074;2024-02-21T08:31:25;11.70;79.80
44111;DHT22;29774;52.664;5.074;2024-02-21T08:34:00;11.60;79.80
44111;DHT22;29774;52.664;5.074;2024-02-21T08:38:56;11.80;80.00
44111;DHT22;29774;52.664;5.074;2024-02-21T08:41:25;11.80;79.80
44111;DHT22;29774;52.664;5.074;2024-02-21T08:43:52;11.80;79.70
44111;DHT22;29774;52.664;5.074;2024-02-21T08:46:20;11.80;79.70
44111;DHT22;29774;52.664;5.074;2024-02-21T08:48:46;11.80;79.70
44111;DHT22;29774;52.664;5.074;2024-02-21T08:51:13;11.90;79.80
44111;DHT22;29774;52.664;5.074;2024-02-21T08:53:39;11.90;79.70
44111;DHT22;29774;52.664;5.074;2024-02-21T08:56:05;11.80;79.60
44111;DHT22;29774;52.664;5.074;2024-02-21T08:58:31;11.90;79.70
44111;DHT22;29774;52.664;5.074;2024-02-21T09:00:57;11.90;79.60
44111;DHT22;29774;52.664;5.074;2024-02-21T09:03:22;11.70;79.10
44111;DHT22;29774;52.664;5.074;2024-02-21T09:05:49;11.90;80.20
44111;DHT22;29774;52.664;5.074;2024-02-21T09:08:14;12.00;79.70
44111;DHT22;29774;52.664;5.074;2024-02-21T09:10:40;12.00;79.50
44111;DHT22;29774;52.664;5.074;2024-02-21T09:13:07;12.00;79.30
44111;DHT22;29774;52.664;5.074;2024-02-21T09:15:34;12.00;79.10
44111;DHT22;29774;52.664;5.074;2024-02-21T09:17:59;12.00;79.10
44111;DHT22;29774;52.664;5.074;2024-02-21T09:20:25;12.00;79.10
44111;DHT22;29774;52.664;5.074;2024-02-21T09:22:50;11.90;79.00
44111;DHT22;29774;52.664;5.074;2024-02-21T09:25:17;11.90;79.30
44111;DHT22;29774;52.664;5.074;2024-02-21T09:27:44;11.90;79.20
44111;DHT22;29774;52.664;5.074;2024-02-21T09:30:11;11.90;79.10
44111;DHT22;29774;52.664;5.074;2024-02-21T09:32:37;11.80;79.30
44111;DHT22;29774;52.664;5.074;2024-02-21T09:35:03;11.90;79.40
44111;DHT22;29774;52.664;5.074;2024-02-21T09:37:30;12.00;79.50
44111;DHT22;29774;52.664;5.074;2024-02-21T09:39:56;11.90;79.30
44111;DHT22;29774;52.664;5.074;2024-02-21T09:42:26;11.90;79.40
44111;DHT22;29774;52.664;5.074;2024-02-21T09:44:53;11.90;79.30
44111;DHT22;29774;52.664;5.074;2024-02-21T09:47:42;12.00;79.50
44111;DHT22;29774;52.664;5.074;2024-02-21T09:50:09;12.00;79.30
44111;DHT22;29774;52.664;5.074;2024-02-21T09:52:35;12.10;79.20
44111;DHT22;29774;52.664;5.074;2024-02-21T09:55:03;12.00;79.10
44111;DHT22;29774;52.664;5.074;2024-02-21T09:57:30;12.00;79.20
44111;DHT22;29774;52.664;5.074;2024-02-21T09:59:57;12.00;79.10
44111;DHT22;29774;52.664;5.074;2024-02-21T10:02:24;12.10;79.30
44111;DHT22;29774;52.664;5.074;2024-02-21T10:04:50;12.30;79.20
44111;DHT22;29774;52.664;5.074;2024-02-21T10:07:16;12.30;78.50
44111;DHT22;29774;52.664;5.074;2024-02-21T10:09:41;12.40;78.40
44111;DHT22;29774;52.664;5.074;2024-02-21T10:12:11;12.50;78.00
44111;DHT22;29774;52.664;5.074;2024-02-21T10:14:37;12.50;77.70
44111;DHT22;29774;52.664;5.074;2024-02-21T10:17:03;12.50;77.70
44111;DHT22;29774;52.664;5.074;2024-02-21T10:19:34;12.40;77.70
44111;DHT22;29774;52.664;5.074;2024-02-21T10:24:27;12.30;77.70
44111;DHT22;29774;52.664;5.074;2024-02-21T10:27:04;12.10;77.60
44111;DHT22;29774;52.664;5.074;2024-02-21T10:29:31;12.20;78.80
44111;DHT22;29774;52.664;5.074;2024-02-21T10:32:07;12.30;78.80
44111;DHT22;29774;52.664;5.074;2024-02-21T10:34:34;12.30;78.40
44111;DHT22;29774;52.664;5.074;2024-02-21T10:37:03;12.30;78.00
44111;DHT22;29774;52.664;5.074;2024-02-21T10:39:36;12.30;78.30
44111;DHT22;29774;52.664;5.074;2024-02-21T10:42:03;12.30;78.60
44111;DHT22;29774;52.664;5.074;2024-02-21T10:44:31;12.40;78.50
44111;DHT22;29774;52.664;5.074;2024-02-21T10:46:57;12.30;77.90
44111;DHT22;29774;52.664;5.074;2024-02-21T10:49:25;12.30;78.70
44111;DHT22;29774;52.664;5.074;2024-02-21T10:51:55;12.30;78.60
44111;DHT22;29774;52.664;5.074;2024-02-21T10:56:54;12.40;78.70
44111;DHT22;29774;52.664;5.074;2024-02-21T10:59:22;12.60;78.10
44111;DHT22;29774;52.664;5.074;2024-02-21T11:01:48;12.50;77.70
44111;DHT22;29774;52.664;5.074;2024-02-21T11:04:14;12.50;78.10
44111;DHT22;29774;52.664;5.074;2024-02-21T11:06:41;12.40;78.00
44111;DHT22;29774;52.664;5.074;2024-02-21T11:09:09;12.40;78.30
44111;DHT22;29774;52.664;5.074;2024-02-21T11:11:39;12.30;77.80
44111;DHT22;29774;52.664;5.074;2024-02-21T11:14:21;12.30;78.30
44111;DHT22;29774;52.664;5.074;2024-02-21T11:16:47;12.30;78.00
44111;DHT22;29774;52.664;5.074;2024-02-21T11:19:22;12.40;78.50
44111;DHT22;29774;52.664;5.074;2024-02-21T11:21:50;12.30;77.90
44111;DHT22;29774;52.664;5.074;2024-02-21T11:24:29;12.40;78.40
44111;DHT22;29774;52.664;5.074;2024-02-21T11:26:56;12.40;78.50
44111;DHT22;29774;52.664;5.074;2024-02-21T11:29:25;12.60;78.10
44111;DHT22;29774;52.664;5.074;2024-02-21T11:31:52;12.50;77.60
44111;DHT22;29774;52.664;5.074;2024-02-21T11:34:18;12.50;77.90
44111;DHT22;29774;52.664;5.074;2024-02-21T11:36:51;12.60;77.90
44111;DHT22;29774;52.664;5.074;2024-02-21T11:39:22;12.40;77.00
44111;DHT22;29774;52.664;5.074;2024-02-21T11:42:01;12.40;77.50
44111;DHT22;29774;52.664;5.074;2024-02-21T11:44:26;12.40;78.50
44111;DHT22;29774;52.664;5.074;2024-02-21T11:46:52;12.40;77.50
44111;DHT22;29774;52.664;5.074;2024-02-21T11:49:18;12.50;77.80
44111;DHT22;29774;52.664;5.074;2024-02-21T11:51:43;12.40;78.00
44111;DHT22;29774;52.664;5.074;2024-02-21T11:54:11;12.40;77.80
44111;DHT22;29774;52.664;5.074;2024-02-21T11:56:38;12.60;77.70
44111;DHT22;29774;52.664;5.074;2024-02-21T11:59:04;12.70;77.60
44111;DHT22;29774;52.664;5.074;2024-02-21T12:01:31;12.70;77.30
44111;DHT22;29774;52.664;5.074;2024-02-21T12:03:57;12.70;77.60
44111;DHT22;29774;52.664;5.074;2024-02-21T12:06:23;12.60;77.40
44111;DHT22;29774;52.664;5.074;2024-02-21T12:08:49;12.70;77.50
44111;DHT22;29774;52.664;5.074;2024-02-21T12:11:22;12.80;77.30
44111;DHT22;29774;52.664;5.074;2024-02-21T12:16:30;12.70;77.20
44111;DHT22;29774;52.664;5.074;2024-02-21T12:18:57;12.80;77.40
44111;DHT22;29774;52.664;5.074;2024-02-21T12:21:32;12.70;77.00
44111;DHT22;29774;52.664;5.074;2024-02-21T12:24:00;12.70;77.40
44111;DHT22;29774;52.664;5.074;2024-02-21T12:26:25;12.70;77.00
44111;DHT22;29774;52.664;5.074;2024-02-21T12:28:53;12.70;77.40
44111;DHT22;29774;52.664;5.074;2024-02-21T12:31:18;12.70;76.90
44111;DHT22;29774;52.664;5.074;2024-02-21T12:33:44;12.70;77.40
44111;DHT22;29774;52.664;5.074;2024-02-21T12:36:10;12.70;77.60
44111;DHT22;29774;52.664;5.074;2024-02-21T12:38:36;12.70;77.30
44111;DHT22;29774;52.664;5.074;2024-02-21T12:41:02;12.80;77.60
44111;DHT22;29774;52.664;5.074;2024-02-21T12:43:28;12.70;76.90
44111;DHT22;29774;52.664;5.074;2024-02-21T12:45:54;12.60;76.70
44111;DHT22;29774;52.664;5.074;2024-02-21T12:48:20;12.40;76.90
44111;DHT22;29774;52.664;5.074;2024-02-21T12:50:49;12.50;77.50
44111;DHT22;29774;52.664;5.074;2024-02-21T12:53:19;12.70;78.30
44111;DHT22;29774;52.664;5.074;2024-02-21T12:55:47;12.70;77.50
44111;DHT22;29774;52.664;5.074;2024-02-21T12:58:14;12.70;76.90
44111;DHT22;29774;52.664;5.074;2024-02-21T13:00:40;12.60;77.10
44111;DHT22;29774;52.664;5.074;2024-02-21T13:03:06;12.70;77.30
44111;DHT22;29774;52.664;5.074;2024-02-21T13:05:32;12.60;77.40
44111;DHT22;29774;52.664;5.074;2024-02-21T13:07:58;12.60;77.10
44111;DHT22;29774;52.664;5.074;2024-02-21T13:10:24;12.50;76.90
44111;DHT22;29774;52.664;5.074;2024-02-21T13:12:50;12.50;77.70
44111;DHT22;29774;52.664;5.074;2024-02-21T13:15:16;12.50;77.60
44111;DHT22;29774;52.664;5.074;2024-02-21T13:17:44;12.40;77.40
44111;DHT22;29774;52.664;5.074;2024-02-21T13:20:10;12.60;78.20
44111;DHT22;29774;52.664;5.074;2024-02-21T13:22:36;12.70;77.70
44111;DHT22;29774;52.664;5.074;2024-02-21T13:25:03;12.70;77.30
44111;DHT22;29774;52.664;5.074;2024-02-21T13:27:29;12.60;77.00
44111;DHT22;29774;52.664;5.074;2024-02-21T13:29:54;12.60;77.70
44111;DHT22;29774;52.664;5.074;2024-02-21T13:32:20;12.70;77.70
44111;DHT22;29774;52.664;5.074;2024-02-21T13:34:45;12.70;77.00
44111;DHT22;29774;52.664;5.074;2024-02-21T13:37:11;12.70;77.60
44111;DHT22;29774;52.664;5.074;2024-02-21T13:39:37;12.80;77.20
44111;DHT22;29774;52.664;5.074;2024-02-21T13:42:03;12.80;76.90
44111;DHT22;29774;52.664;5.074;2024-02-21T13:44:31;12.80;77.20
44111;DHT22;29774;52.664;5.074;2024-02-21T13:46:57;13.00;77.00
44111;DHT22;29774;52.664;5.074;2024-02-21T13:49:23;13.00;76.80
44111;DHT22;29774;52.664;5.074;2024-02-21T13:51:48;13.00;77.00
44111;DHT22;29774;52.664;5.074;2024-02-21T13:54:14;13.10;76.60
44111;DHT22;29774;52.664;5.074;2024-02-21T13:56:45;13.00;76.70
44111;DHT22;29774;52.664;5.074;2024-02-21T13:59:12;12.90;76.40
44111;DHT22;29774;52.664;5.074;2024-02-21T14:01:41;12.80;77.00
44111;DHT22;29774;52.664;5.074;2024-02-21T14:04:08;12.80;77.40
44111;DHT22;29774;52.664;5.074;2024-02-21T14:06:33;12.80;76.70
44111;DHT22;29774;52.664;5.074;2024-02-21T14:08:59;12.70;76.90
44111;DHT22;29774;52.664;5.074;2024-02-21T14:11:25;12.70;77.60
44111;DHT22;29774;52.664;5.074;2024-02-21T14:13:52;12.90;77.30
44111;DHT22;29774;52.664;5.074;2024-02-21T14:16:18;12.80;76.80
44111;DHT22;29774;52.664;5.074;2024-02-21T14:18:43;12.70;76.90
44111;DHT22;29774;52.664;5.074;2024-02-21T14:21:12;12.70;77.00
44111;DHT22;29774;52.664;5.074;2024-02-21T14:23:38;12.70;77.60
44111;DHT22;29774;52.664;5.074;2024-02-21T14:26:05;12.80;77.40
44111;DHT22;29774;52.664;5.074;2024-02-21T14:28:31;12.60;77.30
44111;DHT22;29774;52.664;5.074;2024-02-21T14:30:59;12.60;77.60
44111;DHT22;29774;52.664;5.074;2024-02-21T14:33:26;12.70;77.90
44111;DHT22;29774;52.664;5.074;2024-02-21T14:35:52;12.70;77.60
44111;DHT22;29774;52.664;5.074;2024-02-21T14:38:19;12.90;77.30
44111;DHT22;29774;52.664;5.074;2024-02-21T14:40:45;12.80;77.20
44111;DHT22;29774;52.664;5.074;2024-02-21T14:43:11;12.80;77.50
44111;DHT22;29774;52.664;5.074;2024-02-21T14:45:36;12.80;77.30
44111;DHT22;29774;52.664;5.074;2024-02-21T14:48:04;12.60;77.10
44111;DHT22;29774;52.664;5.074;2024-02-21T14:50:30;12.50;77.00
44111;DHT22;29774;52.664;5.074;2024-02-21T14:52:55;12.60;77.60
44111;DHT22;29774;52.664;5.074;2024-02-21T14:55:21;12.50;77.20
44111;DHT22;29774;52.664;5.074;2024-02-21T14:57:47;12.60;78.10
44111;DHT22;29774;52.664;5.074;2024-02-21T15:00:13;12.70;77.90
44111;DHT22;29774;52.664;5.074;2024-02-21T15:02:38;12.70;76.80
44111;DHT22;29774;52.664;5.074;2024-02-21T15:05:04;12.70;78.00
44111;DHT22;29774;52.664;5.074;2024-02-21T15:07:31;12.60;77.20
44111;DHT22;29774;52.664;5.074;2024-02-21T15:09:57;12.10;77.10
44111;DHT22;29774;52.664;5.074;2024-02-21T15:12:23;12.20;78.70
44111;DHT22;29774;52.664;5.074;2024-02-21T15:14:49;12.00;78.30
44111;DHT22;29774;52.664;5.074;2024-02-21T15:17:15;12.20;78.80
44111;DHT22;29774;52.664;5.074;2024-02-21T15:19:41;11.90;78.00
44111;DHT22;29774;52.664;5.074;2024-02-21T15:22:10;11.80;79.20
44111;DHT22;29774;52.664;5.074;2024-02-21T15:24:38;11.90;80.10
44111;DHT22;29774;52.664;5.074;2024-02-21T15:27:03;12.00;79.90
44111;DHT22;29774;52.664;5.074;2024-02-21T15:29:29;11.90;79.30
44111;DHT22;29774;52.664;5.074;2024-02-21T15:31:55;12.00;79.70
44111;DHT22;29774;52.664;5.074;2024-02-21T15:34:21;12.00;80.00
44111;DHT22;29774;52.664;5.074;2024-02-21T15:36:47;12.10;79.80